createdAt,value
2023-03-01T00:01:27.168Z,3.14
2023-03-01T00:03:56.391Z,3.08
2023-03-01T00:06:25.266Z,3.05
2023-03-01T00:08:53.632Z,3.05
2023-03-01T00:11:23.809Z,3.02
2023-03-01T00:13:58.590Z,3.00
2023-03-01T00:16:29.322Z,2.86
2023-03-01T00:18:58.635Z,2.83
2023-03-01T00:21:28.653Z,2.86
2023-03-01T00:23:57.849Z,2.82
2023-03-01T00:26:27.519Z,2.88
2023-03-01T00:28:59.354Z,2.80
2023-03-01T00:31:30.374Z,2.82
2023-03-01T00:34:00.281Z,2.81
2023-03-01T00:36:30.769Z,2.76
2023-03-01T00:38:59.623Z,2.71
2023-03-01T00:41:28.426Z,2.70
2023-03-01T00:43:58.787Z,2.62
2023-03-01T00:46:28.534Z,2.63
2023-03-01T00:48:57.030Z,2.63
2023-03-01T00:51:27.922Z,2.56
2023-03-01T00:53:58.061Z,2.58
2023-03-01T00:56:27.041Z,2.55
2023-03-01T00:58:55.370Z,2.54
2023-03-01T01:01:28.457Z,2.51
2023-03-01T01:03:59.170Z,2.52
2023-03-01T01:06:29.817Z,2.54
2023-03-01T01:08:59.446Z,2.50
2023-03-01T01:11:29.216Z,2.54
2023-03-01T01:13:58.447Z,2.49
2023-03-01T01:16:30.262Z,2.49
2023-03-01T01:18:59.354Z,2.48
2023-03-01T01:21:28.456Z,2.42
2023-03-01T01:23:57.285Z,2.38
2023-03-01T01:26:29.935Z,2.32
2023-03-01T01:28:58.619Z,2.28
2023-03-01T01:31:30.015Z,2.27
2023-03-01T01:33:58.773Z,2.19
2023-03-01T01:36:27.444Z,2.16
2023-03-01T01:38:56.019Z,2.15
2023-03-01T01:41:25.787Z,2.14
2023-03-01T01:44:16.474Z,2.09
2023-03-01T01:46:48.256Z,2.04
2023-03-01T01:49:25.652Z,1.93
2023-03-01T01:51:59.882Z,1.90
2023-03-01T01:54:33.588Z,1.94
2023-03-01T01:57:05.852Z,1.92
2023-03-01T01:59:35.431Z,1.87
2023-03-01T02:02:06.098Z,1.84
2023-03-01T02:04:34.606Z,1.85
2023-03-01T02:07:06.540Z,1.89
2023-03-01T02:09:35.734Z,1.86
2023-03-01T02:12:05.250Z,1.83
2023-03-01T02:14:33.546Z,1.83
2023-03-01T02:17:01.994Z,1.75
2023-03-01T02:19:42.961Z,1.74
2023-03-01T02:22:20.373Z,1.73
2023-03-01T02:24:54.292Z,1.72
2023-03-01T02:27:28.490Z,1.71
2023-03-01T02:29:58.300Z,1.67
2023-03-01T02:32:27.151Z,1.53
2023-03-01T02:34:56.034Z,1.61
2023-03-01T02:37:26.823Z,1.57
2023-03-01T02:39:59.201Z,1.56
2023-03-01T02:42:30.739Z,1.53
2023-03-01T02:45:00.580Z,1.59
2023-03-01T02:47:29.021Z,1.52
2023-03-01T02:49:57.252Z,1.46
2023-03-01T02:52:33.077Z,1.47
2023-03-01T02:55:05.375Z,1.51
2023-03-01T02:57:35.158Z,1.48
2023-03-01T03:00:09.302Z,1.48
2023-03-01T03:02:38.363Z,1.40
2023-03-01T03:05:10.483Z,1.40
2023-03-01T03:07:40.110Z,1.37
2023-03-01T03:10:12.305Z,1.34
2023-03-01T03:12:41.029Z,1.32
2023-03-01T03:15:13.844Z,1.28
2023-03-01T03:17:45.379Z,1.28
2023-03-01T03:20:20.029Z,1.26
2023-03-01T03:22:49.616Z,1.26
2023-03-01T03:25:18.294Z,1.24
2023-03-01T03:27:48.873Z,1.22
2023-03-01T03:30:22.625Z,1.11
2023-03-01T03:32:54.201Z,1.19
2023-03-01T03:35:23.554Z,1.15
2023-03-01T03:38:04.097Z,1.16
2023-03-01T03:40:34.338Z,1.09
2023-03-01T03:43:02.636Z,1.11
2023-03-01T03:45:34.465Z,1.07
2023-03-01T03:48:04.664Z,1.07
2023-03-01T03:50:33.614Z,1.10
2023-03-01T03:53:03.377Z,1.13
2023-03-01T03:55:31.903Z,1.12
2023-03-01T03:58:03.245Z,1.08
2023-03-01T04:00:32.989Z,1.07
2023-03-01T04:03:01.766Z,1.00
2023-03-01T04:05:31.715Z,0.92
2023-03-01T04:08:08.204Z,1.01
2023-03-01T04:10:39.151Z,1.01
2023-03-01T04:13:07.897Z,0.98
2023-03-01T04:15:37.882Z,0.95
2023-03-01T04:18:07.025Z,0.92
2023-03-01T04:20:37.343Z,0.91
2023-03-01T04:23:11.741Z,0.93
2023-03-01T04:25:41.109Z,0.89
2023-03-01T04:28:09.876Z,0.92
2023-03-01T04:30:40.720Z,0.92
2023-03-01T04:33:10.214Z,0.92
2023-03-01T04:35:39.277Z,0.93
2023-03-01T04:38:08.027Z,0.88
2023-03-01T04:40:36.628Z,0.89
2023-03-01T04:43:05.904Z,0.91
2023-03-01T04:45:36.513Z,0.90
2023-03-01T04:48:06.812Z,0.92
2023-03-01T04:50:37.368Z,0.94
2023-03-01T04:53:05.605Z,0.89
2023-03-01T04:55:33.959Z,0.83
2023-03-01T04:58:02.215Z,0.92
2023-03-01T05:00:30.395Z,0.90
2023-03-01T05:03:00.365Z,0.90
2023-03-01T05:05:32.636Z,0.90
2023-03-01T05:08:02.521Z,0.85
2023-03-01T05:10:32.499Z,0.88
2023-03-01T05:13:05.190Z,0.86
2023-03-01T05:15:34.005Z,0.82
2023-03-01T05:18:02.726Z,0.78
2023-03-01T05:20:32.635Z,0.66
2023-03-01T05:23:06.312Z,0.77
2023-03-01T05:25:36.065Z,0.80
2023-03-01T05:28:05.622Z,0.77
2023-03-01T05:30:34.877Z,0.80
2023-03-01T05:33:03.477Z,0.81
2023-03-01T05:35:35.013Z,0.77
2023-03-01T05:38:06.089Z,0.75
2023-03-01T05:40:36.059Z,0.78
2023-03-01T05:43:06.283Z,0.77
2023-03-01T05:45:34.793Z,0.71
2023-03-01T05:48:03.053Z,0.73
2023-03-01T05:50:36.269Z,0.63
2023-03-01T05:53:06.666Z,0.73
2023-03-01T05:55:35.176Z,0.75
2023-03-01T05:58:04.636Z,0.72
2023-03-01T06:00:33.530Z,0.73
2023-03-01T06:03:02.221Z,0.67
2023-03-01T06:05:32.432Z,0.61
2023-03-01T06:08:02.050Z,0.59
2023-03-01T06:10:30.946Z,0.56
2023-03-01T06:12:59.323Z,0.56
2023-03-01T06:15:28.116Z,0.54
2023-03-01T06:18:00.324Z,0.60
2023-03-01T06:20:30.391Z,0.65
2023-03-01T06:23:02.175Z,0.70
2023-03-01T06:25:30.581Z,0.81
2023-03-01T06:27:58.935Z,0.91
2023-03-01T06:30:28.430Z,0.98
2023-03-01T06:33:01.938Z,1.03
2023-03-01T06:35:31.774Z,1.17
2023-03-01T06:38:03.401Z,1.35
2023-03-01T06:40:33.226Z,1.35
2023-03-01T06:43:02.010Z,1.41
2023-03-01T06:45:30.487Z,1.43
2023-03-01T06:48:06.469Z,1.65
2023-03-01T06:50:35.276Z,1.79
2023-03-01T06:53:05.105Z,1.79
2023-03-01T06:55:33.972Z,1.73
2023-03-01T06:58:03.354Z,1.68
2023-03-01T07:00:32.419Z,1.87
2023-03-01T07:03:03.380Z,1.91
2023-03-01T07:05:32.548Z,1.90
2023-03-01T07:08:01.060Z,2.16
2023-03-01T07:10:31.054Z,2.14
2023-03-01T07:13:00.251Z,2.16
2023-03-01T07:15:29.610Z,2.18
2023-03-01T07:17:58.648Z,2.19
2023-03-01T07:20:27.138Z,2.51
2023-03-01T07:22:55.930Z,2.41
2023-03-01T07:25:24.512Z,2.31
2023-03-01T07:27:54.899Z,2.38
2023-03-01T07:30:26.821Z,2.40
2023-03-01T07:32:55.905Z,2.45
2023-03-01T07:35:24.938Z,2.50
2023-03-01T07:37:53.252Z,2.38
2023-03-01T07:40:22.052Z,2.36
2023-03-01T07:42:50.349Z,2.56
2023-03-01T07:45:20.402Z,2.52
2023-03-01T07:47:48.736Z,2.66
2023-03-01T07:50:17.364Z,2.45
2023-03-01T07:52:47.282Z,2.62
2023-03-01T07:55:16.013Z,2.65
2023-03-01T07:57:44.511Z,2.67
2023-03-01T08:00:14.389Z,2.77
2023-03-01T08:02:44.521Z,2.78
2023-03-01T08:05:15.364Z,2.78
2023-03-01T08:07:43.770Z,3.07
2023-03-01T08:10:13.411Z,2.97
2023-03-01T08:12:41.766Z,2.92
2023-03-01T08:15:11.635Z,3.31
2023-03-01T08:17:40.095Z,3.46
2023-03-01T08:20:13.589Z,3.73
2023-03-01T08:22:41.953Z,3.79
2023-03-01T08:25:10.896Z,3.92
2023-03-01T08:27:39.377Z,4.09
2023-03-01T08:30:09.168Z,4.19
2023-03-01T08:32:39.563Z,4.24
2023-03-01T08:35:10.452Z,4.22
2023-03-01T08:37:39.185Z,4.43
2023-03-01T08:40:11.020Z,4.61
2023-03-01T08:42:40.637Z,4.73
2023-03-01T08:45:10.231Z,4.91
2023-03-01T08:47:38.796Z,4.98
2023-03-01T08:50:10.271Z,5.29
2023-03-01T08:52:38.458Z,5.67
2023-03-01T08:55:08.129Z,5.68
2023-03-01T08:57:36.470Z,6.00
2023-03-01T09:00:10.619Z,6.28
2023-03-01T09:02:39.834Z,6.18
2023-03-01T09:05:10.867Z,6.59
2023-03-01T09:07:38.931Z,6.92
2023-03-01T09:10:08.423Z,6.98
2023-03-01T09:12:36.707Z,7.14
2023-03-01T09:15:05.735Z,7.46
2023-03-01T09:17:34.001Z,7.30
2023-03-01T09:20:02.309Z,7.71
2023-03-01T09:22:32.179Z,7.59
2023-03-01T09:25:00.559Z,7.62
2023-03-01T09:27:47.481Z,7.99
2023-03-01T09:30:34.883Z,8.25
2023-03-01T09:33:04.296Z,8.58
2023-03-01T09:35:32.825Z,8.70
2023-03-01T09:38:02.805Z,8.74
2023-03-01T09:40:31.214Z,8.69
2023-03-01T09:43:08.466Z,8.91
2023-03-01T09:45:39.532Z,9.23
2023-03-01T09:48:14.888Z,9.40
2023-03-01T09:50:47.749Z,9.44
2023-03-01T09:53:19.126Z,9.48
2023-03-01T09:55:51.061Z,9.78
2023-03-01T09:58:38.254Z,9.56
2023-03-01T10:01:16.366Z,9.70
2023-03-01T10:03:47.647Z,9.54
2023-03-01T10:06:32.237Z,9.61
2023-03-01T10:09:08.456Z,10.06
2023-03-01T10:11:41.560Z,10.02
2023-03-01T10:14:22.410Z,10.63
2023-03-01T10:16:55.094Z,10.40
2023-03-01T10:19:26.659Z,10.71
2023-03-01T10:21:56.676Z,10.84
2023-03-01T10:24:26.774Z,10.68
2023-03-01T10:26:58.390Z,10.85
2023-03-01T10:29:33.319Z,10.93
2023-03-01T10:32:01.809Z,10.87
2023-03-01T10:34:32.180Z,11.12
2023-03-01T10:37:06.284Z,11.11
2023-03-01T10:39:36.045Z,10.55
2023-03-01T10:42:06.159Z,11.48
2023-03-01T10:44:47.413Z,10.87
2023-03-01T10:47:21.273Z,11.30
2023-03-01T10:49:56.037Z,11.52
2023-03-01T10:52:27.283Z,11.52
2023-03-01T10:55:00.111Z,11.53
2023-03-01T10:57:34.787Z,11.72
2023-03-01T11:00:20.004Z,11.76
2023-03-01T11:02:51.334Z,11.90
2023-03-01T11:05:25.021Z,11.69
2023-03-01T11:07:56.263Z,11.86
2023-03-01T11:10:27.604Z,12.03
2023-03-01T11:13:08.221Z,11.60
2023-03-01T11:15:37.101Z,12.26
2023-03-01T11:18:13.787Z,12.29
2023-03-01T11:20:44.164Z,12.69
2023-03-01T11:23:14.510Z,12.68
2023-03-01T11:25:45.646Z,12.90
2023-03-01T11:28:19.940Z,13.03
2023-03-01T11:31:06.875Z,12.38
2023-03-01T11:33:41.965Z,13.48
2023-03-01T11:36:16.365Z,13.05
2023-03-01T11:38:45.719Z,13.55
2023-03-01T11:41:19.456Z,13.74
2023-03-01T11:43:53.977Z,13.75
2023-03-01T11:46:42.379Z,13.12
2023-03-01T11:49:35.704Z,13.43
2023-03-01T11:52:11.781Z,13.42
2023-03-01T11:54:56.520Z,13.46
2023-03-01T11:57:44.484Z,13.35
2023-03-01T12:00:34.324Z,13.40
2023-03-01T12:03:21.874Z,12.81
2023-03-01T12:06:25.339Z,13.37
2023-03-01T12:09:04.266Z,13.58
2023-03-01T12:11:43.972Z,12.86
2023-03-01T12:14:41.994Z,12.95
2023-03-01T12:17:39.878Z,12.76
2023-03-01T12:20:24.180Z,13.40
2023-03-01T12:23:19.450Z,12.87
2023-03-01T12:25:55.910Z,13.13
2023-03-01T12:28:38.722Z,13.51
2023-03-01T12:31:18.938Z,13.47
2023-03-01T12:33:58.326Z,13.84
2023-03-01T12:36:42.155Z,13.88
2023-03-01T12:39:22.723Z,13.28
2023-03-01T12:41:57.362Z,13.83
2023-03-01T12:44:45.017Z,13.42
2023-03-01T12:47:39.411Z,13.54
2023-03-01T12:50:13.758Z,13.56
2023-03-01T12:52:47.555Z,13.21
2023-03-01T12:55:27.801Z,13.37
2023-03-01T12:58:02.648Z,12.51
2023-03-01T13:00:37.012Z,13.62
2023-03-01T13:03:16.732Z,13.54
2023-03-01T13:05:57.540Z,12.87
2023-03-01T13:08:32.047Z,12.88
2023-03-01T13:11:04.029Z,13.63
2023-03-01T13:13:32.868Z,12.02
2023-03-01T13:16:23.713Z,12.50
2023-03-01T13:19:08.897Z,12.81
2023-03-01T13:21:38.863Z,13.48
2023-03-01T13:24:24.282Z,12.46
2023-03-01T13:27:26.399Z,12.77
2023-03-01T13:30:00.769Z,13.55
2023-03-01T13:32:43.088Z,12.67
2023-03-01T13:35:47.193Z,13.46
2023-03-01T13:38:42.559Z,13.89
2023-03-01T13:41:11.193Z,12.75
2023-03-01T13:43:41.097Z,13.34
2023-03-01T13:46:13.832Z,13.33
2023-03-01T13:48:42.781Z,12.85
2023-03-01T13:51:14.541Z,13.61
2023-03-01T13:53:45.952Z,14.18
2023-03-01T13:56:17.242Z,14.20
2023-03-01T13:58:54.567Z,14.22
2023-03-01T14:01:25.706Z,14.41
2023-03-01T14:03:54.882Z,14.61
2023-03-01T14:06:26.343Z,14.28
2023-03-01T14:09:03.940Z,14.29
2023-03-01T14:12:19.373Z,14.60
2023-03-01T14:14:54.404Z,14.44
2023-03-01T14:17:47.246Z,13.50
2023-03-01T14:20:20.446Z,14.21
2023-03-01T14:22:52.027Z,14.25
2023-03-01T14:25:24.934Z,14.19
2023-03-01T14:27:57.022Z,14.58
2023-03-01T14:30:27.826Z,13.07
2023-03-01T14:32:57.747Z,14.40
2023-03-01T14:35:27.775Z,14.29
2023-03-01T14:37:57.665Z,14.62
2023-03-01T14:40:29.650Z,14.38
2023-03-01T14:43:00.147Z,14.39
2023-03-01T14:45:30.177Z,14.59
2023-03-01T14:48:01.631Z,14.44
2023-03-01T14:50:32.395Z,14.53
2023-03-01T14:53:07.518Z,14.25
2023-03-01T14:55:41.937Z,14.49
2023-03-01T14:58:15.121Z,14.73
2023-03-01T15:00:49.716Z,14.32
2023-03-01T15:03:27.170Z,14.15
2023-03-01T15:05:56.271Z,14.03
2023-03-01T15:08:34.345Z,14.09
2023-03-01T15:11:08.005Z,14.23
2023-03-01T15:13:37.835Z,14.14
2023-03-01T15:16:11.785Z,14.26
2023-03-01T15:18:40.343Z,14.27
2023-03-01T15:23:56.756Z,13.82
2023-03-01T15:26:28.502Z,14.00
2023-03-01T15:29:00.619Z,14.52
2023-03-01T15:31:33.332Z,14.18
2023-03-01T15:34:13.751Z,14.12
2023-03-01T15:36:51.033Z,14.16
2023-03-01T15:39:38.357Z,14.19
2023-03-01T15:42:09.391Z,14.05
2023-03-01T15:44:43.825Z,13.89
2023-03-01T15:47:29.822Z,13.89
2023-03-01T15:50:02.839Z,14.27
2023-03-01T15:52:37.796Z,14.10
2023-03-01T15:55:18.358Z,14.23
2023-03-01T15:57:47.203Z,14.33
2023-03-01T16:00:16.793Z,14.27
2023-03-01T16:02:47.722Z,14.58
2023-03-01T16:05:20.659Z,14.45
2023-03-01T16:07:49.399Z,14.21
2023-03-01T16:10:20.179Z,13.96
2023-03-01T16:12:50.832Z,13.73
2023-03-01T16:15:21.257Z,13.64
2023-03-01T16:17:54.487Z,13.40
2023-03-01T16:20:29.168Z,12.95
2023-03-01T16:23:01.493Z,12.66
2023-03-01T16:25:33.521Z,13.07
2023-03-01T16:28:06.188Z,12.74
2023-03-01T16:30:36.211Z,12.36
2023-03-01T16:33:28.373Z,11.57
2023-03-01T16:35:57.985Z,11.83
2023-03-01T16:38:26.485Z,11.85
2023-03-01T16:40:56.956Z,11.75
2023-03-01T16:43:28.894Z,11.46
2023-03-01T16:46:00.215Z,11.17
2023-03-01T16:48:28.509Z,10.57
2023-03-01T16:51:01.715Z,11.03
2023-03-01T16:53:32.644Z,10.37
2023-03-01T16:56:02.703Z,10.63
2023-03-01T16:58:31.483Z,10.17
2023-03-01T17:01:08.969Z,10.40
2023-03-01T17:03:37.565Z,10.15
2023-03-01T17:06:10.736Z,10.15
2023-03-01T17:08:43.104Z,9.53
2023-03-01T17:11:15.724Z,9.94
2023-03-01T17:13:44.458Z,9.76
2023-03-01T17:16:17.716Z,9.52
2023-03-01T17:18:49.448Z,9.53
2023-03-01T17:21:20.257Z,9.60
2023-03-01T17:23:50.525Z,9.36
2023-03-01T17:26:21.323Z,9.39
2023-03-01T17:28:51.935Z,9.13
2023-03-01T17:31:21.035Z,9.11
2023-03-01T17:33:50.219Z,9.13
2023-03-01T17:36:18.639Z,9.05
2023-03-01T17:38:47.599Z,8.83
2023-03-01T17:41:18.692Z,8.77
2023-03-01T17:43:48.829Z,8.70
2023-03-01T17:46:17.534Z,8.62
2023-03-01T17:48:45.813Z,8.42
2023-03-01T17:51:14.208Z,8.43
2023-03-01T17:53:43.101Z,8.34
2023-03-01T17:56:11.484Z,8.24
2023-03-01T17:58:40.408Z,8.09
2023-03-01T18:01:15.960Z,8.15
2023-03-01T18:03:47.493Z,7.97
2023-03-01T18:06:17.490Z,7.99
2023-03-01T18:08:46.730Z,7.91
2023-03-01T18:11:15.873Z,7.82
2023-03-01T18:13:44.239Z,7.78
2023-03-01T18:16:15.835Z,7.67
2023-03-01T18:18:45.155Z,7.69
2023-03-01T18:21:13.866Z,7.63
2023-03-01T18:23:42.848Z,7.53
2023-03-01T18:26:15.800Z,7.47
2023-03-01T18:28:47.750Z,7.40
2023-03-01T18:31:19.420Z,7.39
2023-03-01T18:33:48.559Z,7.11
2023-03-01T18:36:21.147Z,7.25
2023-03-01T18:38:49.894Z,7.23
2023-03-01T18:41:18.268Z,7.20
2023-03-01T18:43:48.197Z,7.02
2023-03-01T18:46:39.096Z,7.07
2023-03-01T18:49:26.811Z,7.02
2023-03-01T18:52:14.028Z,7.00
2023-03-01T18:55:04.848Z,6.81
2023-03-01T18:57:51.855Z,6.72
2023-03-01T19:00:39.025Z,6.78
2023-03-01T19:03:28.922Z,6.75
2023-03-01T19:06:16.792Z,6.68
2023-03-01T19:09:03.794Z,6.60
2023-03-01T19:11:50.604Z,6.47
2023-03-01T19:14:37.873Z,6.53
2023-03-01T19:17:31.356Z,6.58
2023-03-01T19:20:19.973Z,6.54
2023-03-01T19:23:07.137Z,6.49
2023-03-01T19:25:59.505Z,6.24
2023-03-01T19:28:49.105Z,6.37
2023-03-01T19:31:54.639Z,6.44
2023-03-01T19:34:44.473Z,6.43
2023-03-01T19:37:34.951Z,6.39
2023-03-01T19:40:22.678Z,6.31
2023-03-01T19:43:11.660Z,6.28
2023-03-01T19:45:58.798Z,6.24
2023-03-01T19:48:45.956Z,6.12
2023-03-01T19:51:36.221Z,6.20
2023-03-01T19:54:25.328Z,6.23
2023-03-01T19:57:15.699Z,6.07
2023-03-01T20:00:02.540Z,5.96
2023-03-01T20:02:50.075Z,5.95
2023-03-01T20:05:38.285Z,5.97
2023-03-01T20:08:26.514Z,5.78
2023-03-01T20:11:16.255Z,5.97
2023-03-01T20:14:06.816Z,5.75
2023-03-01T20:16:54.121Z,5.84
2023-03-01T20:19:40.993Z,5.84
2023-03-01T20:22:28.044Z,5.83
2023-03-01T20:25:15.173Z,5.93
2023-03-01T20:28:04.252Z,5.83
2023-03-01T20:30:51.454Z,5.71
2023-03-01T20:33:38.972Z,5.79
2023-03-01T20:36:26.424Z,5.70
2023-03-01T20:39:13.438Z,5.75
2023-03-01T20:42:00.712Z,5.79
2023-03-01T20:44:49.230Z,5.70
2023-03-01T20:47:20.493Z,5.68
2023-03-01T20:49:51.290Z,5.68
2023-03-01T20:52:19.708Z,5.63
2023-03-01T20:54:48.722Z,5.64
2023-03-01T20:57:17.262Z,5.60
2023-03-01T20:59:45.762Z,5.50
2023-03-01T21:02:28.795Z,5.48
2023-03-01T21:04:57.392Z,5.43
2023-03-01T21:07:25.944Z,5.35
2023-03-01T21:09:54.444Z,5.31
2023-03-01T21:12:22.922Z,5.23
2023-03-01T21:14:51.423Z,5.18
2023-03-01T21:17:21.386Z,5.12
2023-03-01T21:19:50.789Z,5.08
2023-03-01T21:22:20.825Z,5.03
2023-03-01T21:24:50.207Z,4.96
2023-03-01T21:27:20.100Z,4.91
2023-03-01T21:29:48.509Z,5.00
2023-03-01T21:32:18.713Z,4.95
2023-03-01T21:34:48.744Z,4.90
2023-03-01T21:37:17.816Z,4.89
2023-03-01T21:39:46.160Z,4.86
2023-03-01T21:42:14.804Z,4.90
2023-03-01T21:44:43.183Z,4.85
2023-03-01T21:47:11.770Z,4.92
2023-03-01T21:49:40.260Z,4.88
2023-03-01T21:52:17.062Z,4.85
2023-03-01T21:54:46.010Z,4.86
2023-03-01T21:57:14.479Z,4.99
2023-03-01T21:59:42.747Z,5.04
2023-03-01T22:02:12.746Z,5.07
2023-03-01T22:04:41.192Z,5.04
2023-03-01T22:07:10.918Z,5.06
2023-03-01T22:09:40.019Z,5.11
2023-03-01T22:12:08.954Z,5.08
2023-03-01T22:14:37.384Z,4.96
2023-03-01T22:17:05.919Z,4.98
2023-03-01T22:19:34.353Z,4.97
2023-03-01T22:22:02.652Z,4.82
2023-03-01T22:24:32.420Z,4.84
2023-03-01T22:27:00.766Z,4.95
2023-03-01T22:29:30.739Z,4.98
2023-03-01T22:31:59.489Z,4.98
2023-03-01T22:34:28.427Z,4.97
2023-03-01T22:36:56.821Z,4.84
2023-03-01T22:39:25.232Z,5.04
2023-03-01T22:41:58.307Z,5.08
2023-03-01T22:44:45.675Z,5.03
2023-03-01T22:47:33.385Z,4.94
2023-03-01T22:50:20.424Z,4.91
2023-03-01T22:53:07.199Z,4.97
2023-03-01T22:55:53.930Z,4.83
2023-03-01T22:58:23.947Z,4.85
2023-03-01T23:00:52.325Z,4.85
2023-03-01T23:03:20.695Z,4.93
2023-03-01T23:05:49.200Z,4.91
2023-03-01T23:08:17.568Z,4.84
2023-03-01T23:10:46.050Z,4.78
2023-03-01T23:13:14.652Z,4.69
2023-03-01T23:15:46.043Z,4.70
2023-03-01T23:18:14.295Z,4.74
2023-03-01T23:20:42.611Z,4.77
2023-03-01T23:23:10.855Z,4.70
2023-03-01T23:25:39.596Z,4.71
2023-03-01T23:28:08.352Z,4.63
2023-03-01T23:30:37.188Z,4.45
2023-03-01T23:37:35.141Z,4.66
2023-03-01T23:40:28.127Z,4.79
2023-03-01T23:43:16.935Z,4.80
2023-03-01T23:45:59.950Z,4.85
2023-03-01T23:48:30.819Z,4.90
2023-03-01T23:51:06.242Z,4.98
2023-03-01T23:53:37.475Z,4.86
2023-03-01T23:56:06.968Z,4.85
2023-03-01T23:58:35.356Z,5.18
